sensor_id;sensor_type;location;lat;lon;timestamp;temperature;humidity
60027;DHT22;45891;53.006;6.512;2022-08-19T00:01:26;16.20;99.90
60027;DHT22;45891;53.006;6.512;2022-08-19T00:03:53;16.20;99.90
60027;DHT22;45891;53.006;6.512;2022-08-19T00:06:19;16.20;99.90
60027;DHT22;45891;53.006;6.512;2022-08-19T00:08:45;16.10;99.90
60027;DHT22;45891;53.006;6.512;2022-08-19T00:11:11;16.10;99.90
60027;DHT22;45891;53.006;6.512;2022-08-19T00:13:38;16.10;99.90
60027;DHT22;45891;53.006;6.512;2022-08-19T00:16:05;16.00;99.90
60027;DHT22;45891;53.006;6.512;2022-08-19T00:18:33;16.00;99.90
60027;DHT22;45891;53.006;6.512;2022-08-19T00:20:59;16.00;99.90
60027;DHT22;45891;53.006;6.512;2022-08-19T00:23:26;16.00;99.90
60027;DHT22;45891;53.006;6.512;2022-08-19T00:25:53;16.00;99.90
60027;DHT22;45891;53.006;6.512;2022-08-19T00:28:19;15.90;99.90
60027;DHT22;45891;53.006;6.512;2022-08-19T00:30:46;15.90;99.90
60027;DHT22;45891;53.006;6.512;2022-08-19T00:33:12;15.80;99.90
60027;DHT22;45891;53.006;6.512;2022-08-19T00:35:39;15.80;99.90
60027;DHT22;45891;53.006;6.512;2022-08-19T00:38:05;15.80;99.90
60027;DHT22;45891;53.006;6.512;2022-08-19T00:40:32;15.80;99.90
60027;DHT22;45891;53.006;6.512;2022-08-19T00:42:59;15.80;99.90
60027;DHT22;45891;53.006;6.512;2022-08-19T00:45:27;15.80;99.90
60027;DHT22;45891;53.006;6.512;2022-08-19T00:47:56;15.80;99.90
60027;DHT22;45891;53.006;6.512;2022-08-19T00:50:22;15.80;99.90
60027;DHT22;45891;53.006;6.512;2022-08-19T00:52:50;15.70;99.90
60027;DHT22;45891;53.006;6.512;2022-08-19T00:55:23;15.70;99.90
60027;DHT22;45891;53.006;6.512;2022-08-19T00:57:54;15.60;99.90
60027;DHT22;45891;53.006;6.512;2022-08-19T01:00:22;15.60;99.90
60027;DHT22;45891;53.006;6.512;2022-08-19T01:02:49;15.60;99.90
60027;DHT22;45891;53.006;6.512;2022-08-19T01:05:19;15.60;99.90
60027;DHT22;45891;53.006;6.512;2022-08-19T01:07:47;15.50;99.90
60027;DHT22;45891;53.006;6.512;2022-08-19T01:10:18;15.50;99.90
60027;DHT22;45891;53.006;6.512;2022-08-19T01:12:46;15.50;99.90
60027;DHT22;45891;53.006;6.512;2022-08-19T01:15:16;15.40;99.90
60027;DHT22;45891;53.006;6.512;2022-08-19T01:17:43;15.40;99.90
60027;DHT22;45891;53.006;6.512;2022-08-19T01:20:13;15.40;99.90
60027;DHT22;45891;53.006;6.512;2022-08-19T01:25:09;15.30;99.90
60027;DHT22;45891;53.006;6.512;2022-08-19T01:27:40;15.30;99.90
60027;DHT22;45891;53.006;6.512;2022-08-19T01:30:07;15.30;99.90
60027;DHT22;45891;53.006;6.512;2022-08-19T01:32:34;15.30;99.90
60027;DHT22;45891;53.006;6.512;2022-08-19T01:35:02;15.20;99.90
60027;DHT22;45891;53.006;6.512;2022-08-19T01:37:29;15.20;99.90
60027;DHT22;45891;53.006;6.512;2022-08-19T01:39:56;15.20;99.90
60027;DHT22;45891;53.006;6.512;2022-08-19T01:42:22;15.10;99.90
60027;DHT22;45891;53.006;6.512;2022-08-19T01:44:48;15.10;99.90
60027;DHT22;45891;53.006;6.512;2022-08-19T01:47:14;15.10;99.90
60027;DHT22;45891;53.006;6.512;2022-08-19T01:49:41;15.10;99.90
60027;DHT22;45891;53.006;6.512;2022-08-19T01:52:07;15.10;99.90
60027;DHT22;45891;53.006;6.512;2022-08-19T01:54:34;15.10;99.90
60027;DHT22;45891;53.006;6.512;2022-08-19T01:57:05;15.10;99.90
60027;DHT22;45891;53.006;6.512;2022-08-19T01:59:33;15.10;99.90
60027;DHT22;45891;53.006;6.512;2022-08-19T02:01:59;15.10;99.90
60027;DHT22;45891;53.006;6.512;2022-08-19T02:04:25;15.10;99.90
60027;DHT22;45891;53.006;6.512;2022-08-19T02:06:52;15.10;99.90
60027;DHT22;45891;53.006;6.512;2022-08-19T02:09:18;15.10;99.90
60027;DHT22;45891;53.006;6.512;2022-08-19T02:11:44;15.10;99.90
60027;DHT22;45891;53.006;6.512;2022-08-19T02:14:10;15.10;99.90
60027;DHT22;45891;53.006;6.512;2022-08-19T02:16:36;15.10;99.90
60027;DHT22;45891;53.006;6.512;2022-08-19T02:19:03;15.20;99.90
60027;DHT22;45891;53.006;6.512;2022-08-19T02:21:29;15.10;99.90
60027;DHT22;45891;53.006;6.512;2022-08-19T02:23:56;15.10;99.90
60027;DHT22;45891;53.006;6.512;2022-08-19T02:26:22;15.10;99.90
60027;DHT22;45891;53.006;6.512;2022-08-19T02:28:49;15.10;99.90
60027;DHT22;45891;53.006;6.512;2022-08-19T02:31:19;15.10;99.90
60027;DHT22;45891;53.006;6.512;2022-08-19T02:33:46;15.10;99.90
60027;DHT22;45891;53.006;6.512;2022-08-19T02:36:14;15.00;99.90
60027;DHT22;45891;53.006;6.512;2022-08-19T02:38:41;15.00;99.90
60027;DHT22;45891;53.006;6.512;2022-08-19T02:41:14;15.00;99.90
60027;DHT22;45891;53.006;6.512;2022-08-19T02:43:40;15.00;99.90
60027;DHT22;45891;53.006;6.512;2022-08-19T02:48:40;15.00;99.90
60027;DHT22;45891;53.006;6.512;2022-08-19T02:51:06;14.90;99.90
60027;DHT22;45891;53.006;6.512;2022-08-19T02:53:32;14.90;99.90
60027;DHT22;45891;53.006;6.512;2022-08-19T02:55:58;14.90;99.90
60027;DHT22;45891;53.006;6.512;2022-08-19T02:58:25;14.90;99.90
60027;DHT22;45891;53.006;6.512;2022-08-19T03:00:55;15.00;99.90
60027;DHT22;45891;53.006;6.512;2022-08-19T03:03:21;14.90;99.90
60027;DHT22;45891;53.006;6.512;2022-08-19T03:05:48;14.90;99.90
60027;DHT22;45891;53.006;6.512;2022-08-19T03:08:14;14.90;99.90
60027;DHT22;45891;53.006;6.512;2022-08-19T03:10:45;14.90;99.90
60027;DHT22;45891;53.006;6.512;2022-08-19T03:13:16;14.90;99.90
60027;DHT22;45891;53.006;6.512;2022-08-19T03:15:44;14.90;99.90
60027;DHT22;45891;53.006;6.512;2022-08-19T03:18:11;14.90;99.90
60027;DHT22;45891;53.006;6.512;2022-08-19T03:20:43;15.00;99.90
60027;DHT22;45891;53.006;6.512;2022-08-19T03:23:10;15.00;99.90
60027;DHT22;45891;53.006;6.512;2022-08-19T03:25:38;15.00;99.90
60027;DHT22;45891;53.006;6.512;2022-08-19T03:28:04;15.00;99.90
60027;DHT22;45891;53.006;6.512;2022-08-19T03:30:30;15.00;99.90
60027;DHT22;45891;53.006;6.512;2022-08-19T03:32:57;15.00;99.90
60027;DHT22;45891;53.006;6.512;2022-08-19T03:35:23;15.00;99.90
60027;DHT22;45891;53.006;6.512;2022-08-19T03:37:49;15.00;99.90
60027;DHT22;45891;53.006;6.512;2022-08-19T03:40:15;15.00;99.90
60027;DHT22;45891;53.006;6.512;2022-08-19T03:42:42;14.90;99.90
60027;DHT22;45891;53.006;6.512;2022-08-19T03:45:08;15.00;99.90
60027;DHT22;45891;53.006;6.512;2022-08-19T03:47:36;14.90;99.90
60027;DHT22;45891;53.006;6.512;2022-08-19T03:50:03;15.00;99.90
60027;DHT22;45891;53.006;6.512;2022-08-19T03:52:30;14.90;99.90
60027;DHT22;45891;53.006;6.512;2022-08-19T03:54:56;14.90;99.90
60027;DHT22;45891;53.006;6.512;2022-08-19T03:57:22;14.90;99.90
60027;DHT22;45891;53.006;6.512;2022-08-19T03:59:48;14.90;99.90
60027;DHT22;45891;53.006;6.512;2022-08-19T04:02:14;14.90;99.90
60027;DHT22;45891;53.006;6.512;2022-08-19T04:04:42;14.90;99.90
60027;DHT22;45891;53.006;6.512;2022-08-19T04:07:10;14.90;99.90
60027;DHT22;45891;53.006;6.512;2022-08-19T04:09:37;14.90;99.90
60027;DHT22;45891;53.006;6.512;2022-08-19T04:12:04;14.90;99.90
60027;DHT22;45891;53.006;6.512;2022-08-19T04:14:31;14.90;99.90
60027;DHT22;45891;53.006;6.512;2022-08-19T04:16:59;14.90;99.90
60027;DHT22;45891;53.006;6.512;2022-08-19T04:19:29;14.90;99.90
60027;DHT22;45891;53.006;6.512;2022-08-19T04:21:55;14.90;99.90
60027;DHT22;45891;53.006;6.512;2022-08-19T04:24:22;14.90;99.90
60027;DHT22;45891;53.006;6.512;2022-08-19T04:26:49;14.90;99.90
60027;DHT22;45891;53.006;6.512;2022-08-19T04:29:19;14.90;99.90
60027;DHT22;45891;53.006;6.512;2022-08-19T04:31:47;14.90;99.90
60027;DHT22;45891;53.006;6.512;2022-08-19T04:34:17;14.80;99.90
60027;DHT22;45891;53.006;6.512;2022-08-19T04:36:44;14.80;99.90
60027;DHT22;45891;53.006;6.512;2022-08-19T04:39:15;14.80;99.90
60027;DHT22;45891;53.006;6.512;2022-08-19T04:41:42;14.80;99.90
60027;DHT22;45891;53.006;6.512;2022-08-19T04:44:30;14.80;99.90
60027;DHT22;45891;53.006;6.512;2022-08-19T04:46:57;14.80;99.90
60027;DHT22;45891;53.006;6.512;2022-08-19T04:49:23;14.80;99.90
60027;DHT22;45891;53.006;6.512;2022-08-19T04:51:51;14.80;99.90
60027;DHT22;45891;53.006;6.512;2022-08-19T04:54:21;14.80;99.90
60027;DHT22;45891;53.006;6.512;2022-08-19T04:56:49;14.80;99.90
60027;DHT22;45891;53.006;6.512;2022-08-19T04:59:16;14.80;99.90
60027;DHT22;45891;53.006;6.512;2022-08-19T05:01:43;14.80;99.90
60027;DHT22;45891;53.006;6.512;2022-08-19T05:04:10;14.80;99.90
60027;DHT22;45891;53.006;6.512;2022-08-19T05:06:36;14.80;99.90
60027;DHT22;45891;53.006;6.512;2022-08-19T05:09:07;14.90;99.90
60027;DHT22;45891;53.006;6.512;2022-08-19T05:11:36;14.90;99.90
60027;DHT22;45891;53.006;6.512;2022-08-19T05:14:08;14.90;99.90
60027;DHT22;45891;53.006;6.512;2022-08-19T05:16:34;15.00;99.90
60027;DHT22;45891;53.006;6.512;2022-08-19T05:19:00;15.00;99.90
60027;DHT22;45891;53.006;6.512;2022-08-19T05:21:46;15.00;99.90
60027;DHT22;45891;53.006;6.512;2022-08-19T05:24:30;15.00;99.90
60027;DHT22;45891;53.006;6.512;2022-08-19T05:27:00;15.10;99.90
60027;DHT22;45891;53.006;6.512;2022-08-19T05:29:29;15.20;99.90
60027;DHT22;45891;53.006;6.512;2022-08-19T05:31:58;15.20;99.90
60027;DHT22;45891;53.006;6.512;2022-08-19T05:34:26;15.30;99.90
60027;DHT22;45891;53.006;6.512;2022-08-19T05:36:57;15.30;99.90
60027;DHT22;45891;53.006;6.512;2022-08-19T05:39:28;15.40;99.90
60027;DHT22;45891;53.006;6.512;2022-08-19T05:42:03;15.50;99.90
60027;DHT22;45891;53.006;6.512;2022-08-19T05:44:31;15.50;99.90
60027;DHT22;45891;53.006;6.512;2022-08-19T05:46:59;15.60;99.90
60027;DHT22;45891;53.006;6.512;2022-08-19T05:49:26;15.60;99.90
60027;DHT22;45891;53.006;6.512;2022-08-19T05:51:53;15.70;99.90
60027;DHT22;45891;53.006;6.512;2022-08-19T05:54:21;15.70;99.90
60027;DHT22;45891;53.006;6.512;2022-08-19T05:56:50;15.80;99.90
60027;DHT22;45891;53.006;6.512;2022-08-19T05:59:17;15.90;99.90
60027;DHT22;45891;53.006;6.512;2022-08-19T06:01:45;16.00;99.90
60027;DHT22;45891;53.006;6.512;2022-08-19T06:04:13;16.00;99.90
60027;DHT22;45891;53.006;6.512;2022-08-19T06:06:39;16.20;99.90
60027;DHT22;45891;53.006;6.512;2022-08-19T06:09:07;16.30;99.90
60027;DHT22;45891;53.006;6.512;2022-08-19T06:11:39;16.40;99.90
60027;DHT22;45891;53.006;6.512;2022-08-19T06:14:09;16.50;99.90
60027;DHT22;45891;53.006;6.512;2022-08-19T06:16:37;16.60;99.90
60027;DHT22;45891;53.006;6.512;2022-08-19T06:19:08;16.70;99.90
60027;DHT22;45891;53.006;6.512;2022-08-19T06:21:35;16.80;99.90
60027;DHT22;45891;53.006;6.512;2022-08-19T06:24:05;17.00;99.90
60027;DHT22;45891;53.006;6.512;2022-08-19T06:26:37;17.40;99.90
60027;DHT22;45891;53.006;6.512;2022-08-19T06:29:09;17.80;99.90
60027;DHT22;45891;53.006;6.512;2022-08-19T06:31:35;18.20;99.90
60027;DHT22;45891;53.006;6.512;2022-08-19T06:34:03;18.50;99.90
60027;DHT22;45891;53.006;6.512;2022-08-19T06:36:35;18.80;99.90
60027;DHT22;45891;53.006;6.512;2022-08-19T06:39:08;19.10;99.90
60027;DHT22;45891;53.006;6.512;2022-08-19T06:41:36;19.40;99.90
60027;DHT22;45891;53.006;6.512;2022-08-19T06:44:05;19.70;99.90
60027;DHT22;45891;53.006;6.512;2022-08-19T06:46:31;19.90;99.90
60027;DHT22;45891;53.006;6.512;2022-08-19T06:48:57;20.10;99.90
60027;DHT22;45891;53.006;6.512;2022-08-19T06:51:24;20.30;99.90
60027;DHT22;45891;53.006;6.512;2022-08-19T06:53:53;20.50;99.90
60027;DHT22;45891;53.006;6.512;2022-08-19T06:56:22;20.70;99.90
60027;DHT22;45891;53.006;6.512;2022-08-19T06:58:51;20.90;99.90
60027;DHT22;45891;53.006;6.512;2022-08-19T07:01:19;21.00;99.90
60027;DHT22;45891;53.006;6.512;2022-08-19T07:03:46;21.20;99.90
60027;DHT22;45891;53.006;6.512;2022-08-19T07:06:15;21.40;99.90
60027;DHT22;45891;53.006;6.512;2022-08-19T07:08:44;21.50;99.90
60027;DHT22;45891;53.006;6.512;2022-08-19T07:11:15;21.60;99.90
60027;DHT22;45891;53.006;6.512;2022-08-19T07:13:41;21.60;99.90
60027;DHT22;45891;53.006;6.512;2022-08-19T07:16:15;21.70;99.90
60027;DHT22;45891;53.006;6.512;2022-08-19T07:18:42;21.80;99.90
60027;DHT22;45891;53.006;6.512;2022-08-19T07:21:15;21.90;99.90
60027;DHT22;45891;53.006;6.512;2022-08-19T07:23:42;22.10;99.90
60027;DHT22;45891;53.006;6.512;2022-08-19T07:26:13;22.30;99.90
60027;DHT22;45891;53.006;6.512;2022-08-19T07:28:41;22.50;99.90
60027;DHT22;45891;53.006;6.512;2022-08-19T07:31:14;22.60;99.90
60027;DHT22;45891;53.006;6.512;2022-08-19T07:33:40;22.80;99.90
60027;DHT22;45891;53.006;6.512;2022-08-19T07:36:10;23.00;99.90
60027;DHT22;45891;53.006;6.512;2022-08-19T07:38:38;23.10;99.90
60027;DHT22;45891;53.006;6.512;2022-08-19T07:41:05;23.40;99.90
60027;DHT22;45891;53.006;6.512;2022-08-19T07:43:31;23.60;99.90
60027;DHT22;45891;53.006;6.512;2022-08-19T07:45:58;23.70;99.90
60027;DHT22;45891;53.006;6.512;2022-08-19T07:48:25;23.90;99.90
60027;DHT22;45891;53.006;6.512;2022-08-19T07:50:53;24.20;99.90
60027;DHT22;45891;53.006;6.512;2022-08-19T07:53:24;24.30;99.90
60027;DHT22;45891;53.006;6.512;2022-08-19T07:55:51;24.40;99.90
60027;DHT22;45891;53.006;6.512;2022-08-19T07:58:19;24.30;99.90
60027;DHT22;45891;53.006;6.512;2022-08-19T08:00:47;24.40;99.90
60027;DHT22;45891;53.006;6.512;2022-08-19T08:03:16;24.40;99.90
60027;DHT22;45891;53.006;6.512;2022-08-19T08:05:43;24.50;99.90
60027;DHT22;45891;53.006;6.512;2022-08-19T08:08:47;24.60;99.90
60027;DHT22;45891;53.006;6.512;2022-08-19T08:11:32;24.80;99.90
60027;DHT22;45891;53.006;6.512;2022-08-19T08:13:58;25.10;99.90
60027;DHT22;45891;53.006;6.512;2022-08-19T08:16:27;25.30;99.90
60027;DHT22;45891;53.006;6.512;2022-08-19T08:18:55;25.50;99.90
60027;DHT22;45891;53.006;6.512;2022-08-19T08:21:21;25.70;99.90
60027;DHT22;45891;53.006;6.512;2022-08-19T08:23:48;25.90;99.90
60027;DHT22;45891;53.006;6.512;2022-08-19T08:26:14;25.90;99.90
60027;DHT22;45891;53.006;6.512;2022-08-19T08:28:41;26.10;99.90
60027;DHT22;45891;53.006;6.512;2022-08-19T08:31:08;26.10;99.90
60027;DHT22;45891;53.006;6.512;2022-08-19T08:33:35;26.30;99.90
60027;DHT22;45891;53.006;6.512;2022-08-19T08:36:04;26.50;99.90
60027;DHT22;45891;53.006;6.512;2022-08-19T08:38:31;26.70;99.90
60027;DHT22;45891;53.006;6.512;2022-08-19T08:41:02;26.70;99.70
60027;DHT22;45891;53.006;6.512;2022-08-19T08:43:38;26.90;99.70
60027;DHT22;45891;53.006;6.512;2022-08-19T08:46:16;27.00;99.40
60027;DHT22;45891;53.006;6.512;2022-08-19T08:51:47;27.10;98.70
60027;DHT22;45891;53.006;6.512;2022-08-19T08:54:18;27.20;98.10
60027;DHT22;45891;53.006;6.512;2022-08-19T08:56:46;27.50;98.80
60027;DHT22;45891;53.006;6.512;2022-08-19T08:59:21;28.00;98.60
60027;DHT22;45891;53.006;6.512;2022-08-19T09:01:49;28.30;97.90
60027;DHT22;45891;53.006;6.512;2022-08-19T09:04:15;28.60;97.60
60027;DHT22;45891;53.006;6.512;2022-08-19T09:07:09;28.60;96.90
60027;DHT22;45891;53.006;6.512;2022-08-19T09:09:42;28.70;96.60
60027;DHT22;45891;53.006;6.512;2022-08-19T09:15:00;28.70;95.90
60027;DHT22;45891;53.006;6.512;2022-08-19T09:17:30;28.90;95.00
60027;DHT22;45891;53.006;6.512;2022-08-19T09:19:59;29.10;95.30
60027;DHT22;45891;53.006;6.512;2022-08-19T09:22:31;29.30;94.70
60027;DHT22;45891;53.006;6.512;2022-08-19T09:24:57;29.60;94.80
60027;DHT22;45891;53.006;6.512;2022-08-19T09:27:25;29.80;94.30
60027;DHT22;45891;53.006;6.512;2022-08-19T09:29:52;29.80;93.20
60027;DHT22;45891;53.006;6.512;2022-08-19T09:32:20;29.70;93.30
60027;DHT22;45891;53.006;6.512;2022-08-19T09:34:46;29.70;93.00
60027;DHT22;45891;53.006;6.512;2022-08-19T09:37:13;29.40;93.30
60027;DHT22;45891;53.006;6.512;2022-08-19T09:39:40;29.40;93.30
60027;DHT22;45891;53.006;6.512;2022-08-19T09:42:07;29.70;93.40
60027;DHT22;45891;53.006;6.512;2022-08-19T09:44:39;30.00;92.60
60027;DHT22;45891;53.006;6.512;2022-08-19T09:47:06;30.20;92.60
60027;DHT22;45891;53.006;6.512;2022-08-19T09:49:34;30.40;92.30
60027;DHT22;45891;53.006;6.512;2022-08-19T09:52:02;30.70;92.40
60027;DHT22;45891;53.006;6.512;2022-08-19T09:54:28;30.80;91.70
60027;DHT22;45891;53.006;6.512;2022-08-19T09:57:02;31.00;91.50
60027;DHT22;45891;53.006;6.512;2022-08-19T09:59:29;30.90;91.00
60027;DHT22;45891;53.006;6.512;2022-08-19T10:01:57;31.00;90.90
60027;DHT22;45891;53.006;6.512;2022-08-19T10:04:24;31.40;90.90
60027;DHT22;45891;53.006;6.512;2022-08-19T10:07:10;31.60;90.60
60027;DHT22;45891;53.006;6.512;2022-08-19T10:09:36;32.00;89.40
60027;DHT22;45891;53.006;6.512;2022-08-19T10:12:04;31.90;88.60
60027;DHT22;45891;53.006;6.512;2022-08-19T10:14:31;31.80;87.30
60027;DHT22;45891;53.006;6.512;2022-08-19T10:16:57;31.70;86.80
60027;DHT22;45891;53.006;6.512;2022-08-19T10:19:25;31.50;85.00
60027;DHT22;45891;53.006;6.512;2022-08-19T10:21:52;31.10;86.50
60027;DHT22;45891;53.006;6.512;2022-08-19T10:24:19;31.20;85.90
60027;DHT22;45891;53.006;6.512;2022-08-19T10:26:46;31.00;84.90
60027;DHT22;45891;53.006;6.512;2022-08-19T10:29:14;31.00;84.80
60027;DHT22;45891;53.006;6.512;2022-08-19T10:31:42;30.80;85.10
60027;DHT22;45891;53.006;6.512;2022-08-19T10:34:10;31.10;86.60
60027;DHT22;45891;53.006;6.512;2022-08-19T10:36:37;31.50;86.40
60027;DHT22;45891;53.006;6.512;2022-08-19T10:39:07;32.00;85.30
60027;DHT22;45891;53.006;6.512;2022-08-19T10:41:36;31.90;83.00
60027;DHT22;45891;53.006;6.512;2022-08-19T10:44:11;31.70;82.90
60027;DHT22;45891;53.006;6.512;2022-08-19T10:46:41;31.50;81.90
60027;DHT22;45891;53.006;6.512;2022-08-19T10:49:10;31.60;83.30
60027;DHT22;45891;53.006;6.512;2022-08-19T10:51:38;31.70;81.90
60027;DHT22;45891;53.006;6.512;2022-08-19T10:54:23;31.30;82.10
60027;DHT22;45891;53.006;6.512;2022-08-19T10:57:10;30.90;82.40
60027;DHT22;45891;53.006;6.512;2022-08-19T10:59:36;30.70;82.60
60027;DHT22;45891;53.006;6.512;2022-08-19T11:02:06;30.40;83.80
60027;DHT22;45891;53.006;6.512;2022-08-19T11:04:33;30.40;82.70
60027;DHT22;45891;53.006;6.512;2022-08-19T11:06:59;30.50;84.60
60027;DHT22;45891;53.006;6.512;2022-08-19T11:09:26;30.60;84.30
60027;DHT22;45891;53.006;6.512;2022-08-19T11:11:56;31.00;83.80
60027;DHT22;45891;53.006;6.512;2022-08-19T11:14:23;30.80;82.80
60027;DHT22;45891;53.006;6.512;2022-08-19T11:16:51;30.60;83.00
60027;DHT22;45891;53.006;6.512;2022-08-19T11:19:22;30.50;83.70
60027;DHT22;45891;53.006;6.512;2022-08-19T11:21:51;30.40;83.80
60027;DHT22;45891;53.006;6.512;2022-08-19T11:24:21;30.40;83.00
60027;DHT22;45891;53.006;6.512;2022-08-19T11:26:50;30.10;83.80
60027;DHT22;45891;53.006;6.512;2022-08-19T11:29:19;30.50;84.20
60027;DHT22;45891;53.006;6.512;2022-08-19T11:31:47;30.80;83.10
60027;DHT22;45891;53.006;6.512;2022-08-19T11:34:17;31.10;84.00
60027;DHT22;45891;53.006;6.512;2022-08-19T11:36:45;31.60;83.10
60027;DHT22;45891;53.006;6.512;2022-08-19T11:39:14;31.80;80.50
60027;DHT22;45891;53.006;6.512;2022-08-19T11:41:41;31.60;81.50
60027;DHT22;45891;53.006;6.512;2022-08-19T11:44:07;31.70;81.70
60027;DHT22;45891;53.006;6.512;2022-08-19T11:46:35;31.80;81.20
60027;DHT22;45891;53.006;6.512;2022-08-19T11:49:03;31.70;80.20
60027;DHT22;45891;53.006;6.512;2022-08-19T11:51:32;31.20;80.30
60027;DHT22;45891;53.006;6.512;2022-08-19T11:54:00;30.90;80.70
60027;DHT22;45891;53.006;6.512;2022-08-19T11:56:27;30.80;80.30
60027;DHT22;45891;53.006;6.512;2022-08-19T11:58:54;30.60;80.70
60027;DHT22;45891;53.006;6.512;2022-08-19T12:01:23;30.30;79.60
60027;DHT22;45891;53.006;6.512;2022-08-19T12:03:51;30.20;80.60
60027;DHT22;45891;53.006;6.512;2022-08-19T12:06:24;30.20;82.00
60027;DHT22;45891;53.006;6.512;2022-08-19T12:08:51;30.30;81.10
60027;DHT22;45891;53.006;6.512;2022-08-19T12:11:18;30.10;80.50
60027;DHT22;45891;53.006;6.512;2022-08-19T12:13:44;30.00;79.90
60027;DHT22;45891;53.006;6.512;2022-08-19T12:16:15;30.00;80.20
60027;DHT22;45891;53.006;6.512;2022-08-19T12:18:42;30.10;79.20
60027;DHT22;45891;53.006;6.512;2022-08-19T12:21:13;30.20;79.50
60027;DHT22;45891;53.006;6.512;2022-08-19T12:23:41;30.70;76.60
60027;DHT22;45891;53.006;6.512;2022-08-19T12:26:09;31.20;74.40
60027;DHT22;45891;53.006;6.512;2022-08-19T12:28:35;31.80;74.10
60027;DHT22;45891;53.006;6.512;2022-08-19T12:31:01;32.50;75.80
60027;DHT22;45891;53.006;6.512;2022-08-19T12:33:28;33.10;73.50
60027;DHT22;45891;53.006;6.512;2022-08-19T12:35:55;33.50;73.80
60027;DHT22;45891;53.006;6.512;2022-08-19T12:38:26;33.90;70.70
60027;DHT22;45891;53.006;6.512;2022-08-19T12:40:53;34.20;70.90
60027;DHT22;45891;53.006;6.512;2022-08-19T12:43:19;33.90;68.60
60027;DHT22;45891;53.006;6.512;2022-08-19T12:45:46;34.00;68.20
60027;DHT22;45891;53.006;6.512;2022-08-19T12:48:12;34.20;68.50
60027;DHT22;45891;53.006;6.512;2022-08-19T12:50:40;34.20;68.10
60027;DHT22;45891;53.006;6.512;2022-08-19T12:53:06;34.30;67.40
60027;DHT22;45891;53.006;6.512;2022-08-19T12:55:32;34.30;66.80
60027;DHT22;45891;53.006;6.512;2022-08-19T12:57:58;34.30;65.60
60027;DHT22;45891;53.006;6.512;2022-08-19T13:00:27;33.70;64.60
60027;DHT22;45891;53.006;6.512;2022-08-19T13:02:54;33.40;64.70
60027;DHT22;45891;53.006;6.512;2022-08-19T13:05:24;33.00;64.20
60027;DHT22;45891;53.006;6.512;2022-08-19T13:07:52;32.70;63.90
60027;DHT22;45891;53.006;6.512;2022-08-19T13:10:20;32.40;65.30
60027;DHT22;45891;53.006;6.512;2022-08-19T13:12:49;31.80;65.80
60027;DHT22;45891;53.006;6.512;2022-08-19T13:15:18;31.40;67.80
60027;DHT22;45891;53.006;6.512;2022-08-19T13:17:48;31.00;68.30
60027;DHT22;45891;53.006;6.512;2022-08-19T13:20:16;30.60;69.80
60027;DHT22;45891;53.006;6.512;2022-08-19T13:22:42;30.50;71.00
60027;DHT22;45891;53.006;6.512;2022-08-19T13:25:11;30.10;71.90
60027;DHT22;45891;53.006;6.512;2022-08-19T13:27:39;30.00;72.70
60027;DHT22;45891;53.006;6.512;2022-08-19T13:30:08;30.10;73.40
60027;DHT22;45891;53.006;6.512;2022-08-19T13:32:53;29.60;75.30
60027;DHT22;45891;53.006;6.512;2022-08-19T13:35:45;28.60;80.90
60027;DHT22;45891;53.006;6.512;2022-08-19T13:38:13;27.80;85.60
60027;DHT22;45891;53.006;6.512;2022-08-19T13:40:41;26.80;90.40
60027;DHT22;45891;53.006;6.512;2022-08-19T13:43:08;26.30;93.60
60027;DHT22;45891;53.006;6.512;2022-08-19T13:45:35;25.80;95.10
60027;DHT22;45891;53.006;6.512;2022-08-19T13:48:04;25.50;96.90
60027;DHT22;45891;53.006;6.512;2022-08-19T13:50:39;25.30;97.00
60027;DHT22;45891;53.006;6.512;2022-08-19T13:53:08;25.20;97.90
60027;DHT22;45891;53.006;6.512;2022-08-19T13:55:37;25.20;98.00
60027;DHT22;45891;53.006;6.512;2022-08-19T13:58:03;25.30;98.20
60027;DHT22;45891;53.006;6.512;2022-08-19T14:00:33;25.30;98.40
60027;DHT22;45891;53.006;6.512;2022-08-19T14:03:00;25.40;98.10
60027;DHT22;45891;53.006;6.512;2022-08-19T14:05:27;25.50;98.00
60027;DHT22;45891;53.006;6.512;2022-08-19T14:07:54;25.50;98.70
60027;DHT22;45891;53.006;6.512;2022-08-19T14:10:22;25.70;98.50
60027;DHT22;45891;53.006;6.512;2022-08-19T14:12:53;26.20;97.90
60027;DHT22;45891;53.006;6.512;2022-08-19T14:15:21;26.30;97.50
60027;DHT22;45891;53.006;6.512;2022-08-19T14:17:49;26.20;97.20
60027;DHT22;45891;53.006;6.512;2022-08-19T14:20:16;26.20;97.00
60027;DHT22;45891;53.006;6.512;2022-08-19T14:22:43;26.10;97.50
60027;DHT22;45891;53.006;6.512;2022-08-19T14:25:12;25.80;97.70
60027;DHT22;45891;53.006;6.512;2022-08-19T14:27:40;25.70;98.00
60027;DHT22;45891;53.006;6.512;2022-08-19T14:30:09;25.40;99.00
60027;DHT22;45891;53.006;6.512;2022-08-19T14:32:36;25.20;99.30
60027;DHT22;45891;53.006;6.512;2022-08-19T14:35:03;25.30;99.50
60027;DHT22;45891;53.006;6.512;2022-08-19T14:37:30;25.10;99.90
60027;DHT22;45891;53.006;6.512;2022-08-19T14:39:56;25.20;99.90
60027;DHT22;45891;53.006;6.512;2022-08-19T14:42:22;25.10;99.90
60027;DHT22;45891;53.006;6.512;2022-08-19T14:44:48;25.10;99.90
60027;DHT22;45891;53.006;6.512;2022-08-19T14:47:14;25.10;99.90
60027;DHT22;45891;53.006;6.512;2022-08-19T14:49:41;25.20;99.90
60027;DHT22;45891;53.006;6.512;2022-08-19T14:52:07;25.30;99.90
60027;DHT22;45891;53.006;6.512;2022-08-19T14:54:33;25.30;99.80
60027;DHT22;45891;53.006;6.512;2022-08-19T14:56:59;25.30;99.90
60027;DHT22;45891;53.006;6.512;2022-08-19T14:59:25;25.40;99.90
60027;DHT22;45891;53.006;6.512;2022-08-19T15:01:51;26.10;99.70
60027;DHT22;45891;53.006;6.512;2022-08-19T15:04:17;26.10;99.70
60027;DHT22;45891;53.006;6.512;2022-08-19T15:06:43;26.60;99.60
60027;DHT22;45891;53.006;6.512;2022-08-19T15:09:10;26.50;99.70
60027;DHT22;45891;53.006;6.512;2022-08-19T15:11:36;26.50;99.70
60027;DHT22;45891;53.006;6.512;2022-08-19T15:14:04;27.40;99.00
60027;DHT22;45891;53.006;6.512;2022-08-19T15:16:33;28.00;98.40
60027;DHT22;45891;53.006;6.512;2022-08-19T15:18:59;27.70;98.60
60027;DHT22;45891;53.006;6.512;2022-08-19T15:21:26;27.50;98.30
60027;DHT22;45891;53.006;6.512;2022-08-19T15:23:55;26.90;98.40
60027;DHT22;45891;53.006;6.512;2022-08-19T15:26:21;26.80;98.10
60027;DHT22;45891;53.006;6.512;2022-08-19T15:28:48;26.20;98.60
60027;DHT22;45891;53.006;6.512;2022-08-19T15:31:17;26.10;98.10
60027;DHT22;45891;53.006;6.512;2022-08-19T15:33:43;26.50;97.50
60027;DHT22;45891;53.006;6.512;2022-08-19T15:36:10;26.10;98.00
60027;DHT22;45891;53.006;6.512;2022-08-19T15:38:40;25.80;98.30
60027;DHT22;45891;53.006;6.512;2022-08-19T15:41:17;25.70;98.30
60027;DHT22;45891;53.006;6.512;2022-08-19T15:44:10;25.70;98.00
60027;DHT22;45891;53.006;6.512;2022-08-19T15:46:39;25.70;97.70
60027;DHT22;45891;53.006;6.512;2022-08-19T15:49:06;25.70;97.80